sensor_id;sensor_type;location;lat;lon;timestamp;P1;durP1;ratioP1;P2;durP2;ratioP2
49392;SDS011;35268;42.642;23.308;2023-03-14T00:02:15;16.65;;;8.57;;
49392;SDS011;35268;42.642;23.308;2023-03-14T00:04:41;19.77;;;8.82;;
49392;SDS011;35268;42.642;23.308;2023-03-14T00:07:07;25.15;;;8.52;;
49392;SDS011;35268;42.642;23.308;2023-03-14T00:09:32;26.60;;;11.20;;
49392;SDS011;35268;42.642;23.308;2023-03-14T00:11:58;25.30;;;10.40;;
49392;SDS011;35268;42.642;23.308;2023-03-14T00:14:23;22.30;;;9.07;;
49392;SDS011;35268;42.642;23.308;2023-03-14T00:16:49;18.33;;;8.85;;
49392;SDS011;35268;42.642;23.308;2023-03-14T00:19:14;20.63;;;8.70;;
49392;SDS011;35268;42.642;23.308;2023-03-14T00:21:40;17.98;;;8.32;;
49392;SDS011;35268;42.642;23.308;2023-03-14T00:24:06;20.73;;;8.27;;
49392;SDS011;35268;42.642;23.308;2023-03-14T00:26:32;22.77;;;8.93;;
49392;SDS011;35268;42.642;23.308;2023-03-14T00:28:57;21.30;;;9.15;;
49392;SDS011;35268;42.642;23.308;2023-03-14T00:31:23;21.55;;;9.52;;
49392;SDS011;35268;42.642;23.308;2023-03-14T00:33:48;25.33;;;10.15;;
49392;SDS011;35268;42.642;23.308;2023-03-14T00:36:17;22.70;;;10.35;;
49392;SDS011;35268;42.642;23.308;2023-03-14T00:38:44;19.73;;;10.38;;
49392;SDS011;35268;42.642;23.308;2023-03-14T00:41:12;20.80;;;9.88;;
49392;SDS011;35268;42.642;23.308;2023-03-14T00:43:39;21.35;;;10.13;;
49392;SDS011;35268;42.642;23.308;2023-03-14T00:46:05;20.48;;;9.13;;
49392;SDS011;35268;42.642;23.308;2023-03-14T00:48:31;21.63;;;9.73;;
49392;SDS011;35268;42.642;23.308;2023-03-14T00:50:56;22.13;;;9.13;;
49392;SDS011;35268;42.642;23.308;2023-03-14T00:53:22;19.35;;;8.30;;
49392;SDS011;35268;42.642;23.308;2023-03-14T00:55:48;21.65;;;10.07;;
49392;SDS011;35268;42.642;23.308;2023-03-14T00:58:15;19.05;;;8.68;;
49392;SDS011;35268;42.642;23.308;2023-03-14T01:00:42;19.65;;;9.20;;
49392;SDS011;35268;42.642;23.308;2023-03-14T01:03:08;15.00;;;7.13;;
49392;SDS011;35268;42.642;23.308;2023-03-14T01:05:35;17.08;;;7.93;;
49392;SDS011;35268;42.642;23.308;2023-03-14T01:08:01;15.77;;;7.70;;
49392;SDS011;35268;42.642;23.308;2023-03-14T01:10:26;14.52;;;7.78;;
49392;SDS011;35268;42.642;23.308;2023-03-14T01:12:52;19.17;;;8.38;;
49392;SDS011;35268;42.642;23.308;2023-03-14T01:15:17;19.50;;;8.32;;
49392;SDS011;35268;42.642;23.308;2023-03-14T01:17:43;19.38;;;8.30;;
49392;SDS011;35268;42.642;23.308;2023-03-14T01:20:10;17.02;;;8.20;;
49392;SDS011;35268;42.642;23.308;2023-03-14T01:22:37;18.02;;;8.20;;
49392;SDS011;35268;42.642;23.308;2023-03-14T01:25:05;16.17;;;8.40;;
49392;SDS011;35268;42.642;23.308;2023-03-14T01:27:32;14.85;;;8.40;;
49392;SDS011;35268;42.642;23.308;2023-03-14T01:29:58;17.95;;;8.15;;
49392;SDS011;35268;42.642;23.308;2023-03-14T01:32:24;21.17;;;8.50;;
49392;SDS011;35268;42.642;23.308;2023-03-14T01:34:50;16.80;;;7.43;;
49392;SDS011;35268;42.642;23.308;2023-03-14T01:37:16;21.00;;;8.45;;
49392;SDS011;35268;42.642;23.308;2023-03-14T01:39:41;15.13;;;7.55;;
49392;SDS011;35268;42.642;23.308;2023-03-14T01:42:07;19.23;;;9.38;;
49392;SDS011;35268;42.642;23.308;2023-03-14T01:47:19;21.65;;;8.75;;
49392;SDS011;35268;42.642;23.308;2023-03-14T01:49:46;22.38;;;8.77;;
49392;SDS011;35268;42.642;23.308;2023-03-14T01:52:14;19.45;;;8.68;;
49392;SDS011;35268;42.642;23.308;2023-03-14T01:55:07;24.05;;;9.63;;
49392;SDS011;35268;42.642;23.308;2023-03-14T01:57:37;17.38;;;8.15;;
49392;SDS011;35268;42.642;23.308;2023-03-14T02:00:10;19.58;;;9.27;;
49392;SDS011;35268;42.642;23.308;2023-03-14T02:02:46;20.35;;;8.80;;
49392;SDS011;35268;42.642;23.308;2023-03-14T02:05:16;20.27;;;9.93;;
49392;SDS011;35268;42.642;23.308;2023-03-14T02:07:52;16.13;;;7.88;;
49392;SDS011;35268;42.642;23.308;2023-03-14T02:10:19;15.77;;;8.43;;
49392;SDS011;35268;42.642;23.308;2023-03-14T02:12:47;16.35;;;8.27;;
49392;SDS011;35268;42.642;23.308;2023-03-14T02:15:14;17.75;;;8.88;;
49392;SDS011;35268;42.642;23.308;2023-03-14T02:17:40;18.42;;;8.73;;
49392;SDS011;35268;42.642;23.308;2023-03-14T02:20:10;29.02;;;8.80;;
49392;SDS011;35268;42.642;23.308;2023-03-14T02:22:42;15.93;;;9.27;;
49392;SDS011;35268;42.642;23.308;2023-03-14T02:27:48;18.27;;;8.75;;
49392;SDS011;35268;42.642;23.308;2023-03-14T02:30:16;15.20;;;8.75;;
49392;SDS011;35268;42.642;23.308;2023-03-14T02:32:47;21.52;;;8.32;;
49392;SDS011;35268;42.642;23.308;2023-03-14T02:35:21;16.23;;;7.55;;
49392;SDS011;35268;42.642;23.308;2023-03-14T02:37:51;15.60;;;8.30;;
49392;SDS011;35268;42.642;23.308;2023-03-14T02:40:20;13.95;;;6.55;;
49392;SDS011;35268;42.642;23.308;2023-03-14T02:42:46;14.48;;;7.47;;
49392;SDS011;35268;42.642;23.308;2023-03-14T02:47:37;14.68;;;6.38;;
49392;SDS011;35268;42.642;23.308;2023-03-14T02:50:09;15.15;;;6.53;;
49392;SDS011;35268;42.642;23.308;2023-03-14T02:52:39;20.33;;;8.02;;
49392;SDS011;35268;42.642;23.308;2023-03-14T02:55:05;17.75;;;6.78;;
49392;SDS011;35268;42.642;23.308;2023-03-14T02:57:31;25.30;;;8.73;;
49392;SDS011;35268;42.642;23.308;2023-03-14T03:00:00;26.25;;;9.98;;
49392;SDS011;35268;42.642;23.308;2023-03-14T03:02:29;29.60;;;9.20;;
49392;SDS011;35268;42.642;23.308;2023-03-14T03:04:54;21.05;;;7.88;;
49392;SDS011;35268;42.642;23.308;2023-03-14T03:07:20;19.50;;;7.88;;
49392;SDS011;35268;42.642;23.308;2023-03-14T03:09:46;17.63;;;7.97;;
49392;SDS011;35268;42.642;23.308;2023-03-14T03:12:11;18.65;;;6.47;;
49392;SDS011;35268;42.642;23.308;2023-03-14T03:14:37;16.65;;;7.25;;
49392;SDS011;35268;42.642;23.308;2023-03-14T03:17:03;15.40;;;6.85;;
49392;SDS011;35268;42.642;23.308;2023-03-14T03:19:29;16.42;;;7.18;;
49392;SDS011;35268;42.642;23.308;2023-03-14T03:21:55;12.38;;;6.43;;
49392;SDS011;35268;42.642;23.308;2023-03-14T03:24:21;13.38;;;6.20;;
49392;SDS011;35268;42.642;23.308;2023-03-14T03:26:46;13.98;;;6.55;;
49392;SDS011;35268;42.642;23.308;2023-03-14T03:29:12;12.02;;;6.35;;
49392;SDS011;35268;42.642;23.308;2023-03-14T03:31:38;11.07;;;6.47;;
49392;SDS011;35268;42.642;23.308;2023-03-14T03:34:04;16.27;;;6.88;;
49392;SDS011;35268;42.642;23.308;2023-03-14T03:36:29;13.90;;;5.53;;
49392;SDS011;35268;42.642;23.308;2023-03-14T03:38:55;14.48;;;6.38;;
49392;SDS011;35268;42.642;23.308;2023-03-14T03:41:20;16.67;;;6.53;;
49392;SDS011;35268;42.642;23.308;2023-03-14T03:43:46;14.90;;;7.60;;
49392;SDS011;35268;42.642;23.308;2023-03-14T03:46:11;14.32;;;7.15;;
49392;SDS011;35268;42.642;23.308;2023-03-14T03:48:36;18.23;;;8.10;;
49392;SDS011;35268;42.642;23.308;2023-03-14T03:51:03;13.80;;;6.80;;
49392;SDS011;35268;42.642;23.308;2023-03-14T03:53:28;17.20;;;8.18;;
49392;SDS011;35268;42.642;23.308;2023-03-14T03:55:54;14.70;;;7.35;;
49392;SDS011;35268;42.642;23.308;2023-03-14T03:58:20;16.02;;;7.93;;
49392;SDS011;35268;42.642;23.308;2023-03-14T04:00:45;17.95;;;7.68;;
49392;SDS011;35268;42.642;23.308;2023-03-14T04:03:11;16.25;;;7.32;;
49392;SDS011;35268;42.642;23.308;2023-03-14T04:05:36;22.77;;;7.40;;
49392;SDS011;35268;42.642;23.308;2023-03-14T04:08:02;14.43;;;7.72;;
49392;SDS011;35268;42.642;23.308;2023-03-14T04:10:28;14.52;;;7.72;;
49392;SDS011;35268;42.642;23.308;2023-03-14T04:12:54;15.20;;;7.55;;
49392;SDS011;35268;42.642;23.308;2023-03-14T04:15:20;15.85;;;7.85;;
49392;SDS011;35268;42.642;23.308;2023-03-14T04:17:45;11.25;;;6.35;;
49392;SDS011;35268;42.642;23.308;2023-03-14T04:20:11;14.93;;;7.10;;
49392;SDS011;35268;42.642;23.308;2023-03-14T04:22:37;13.23;;;6.60;;
49392;SDS011;35268;42.642;23.308;2023-03-14T04:25:03;17.60;;;6.93;;
49392;SDS011;35268;42.642;23.308;2023-03-14T04:27:29;13.60;;;6.53;;
49392;SDS011;35268;42.642;23.308;2023-03-14T04:29:54;14.30;;;6.70;;
49392;SDS011;35268;42.642;23.308;2023-03-14T04:32:20;13.80;;;7.25;;
49392;SDS011;35268;42.642;23.308;2023-03-14T04:34:45;18.48;;;6.93;;
49392;SDS011;35268;42.642;23.308;2023-03-14T04:37:11;15.23;;;7.07;;
49392;SDS011;35268;42.642;23.308;2023-03-14T04:39:37;16.48;;;7.50;;
49392;SDS011;35268;42.642;23.308;2023-03-14T04:42:02;17.30;;;7.30;;
49392;SDS011;35268;42.642;23.308;2023-03-14T04:44:28;18.85;;;7.28;;
49392;SDS011;35268;42.642;23.308;2023-03-14T04:46:53;20.48;;;9.27;;
49392;SDS011;35268;42.642;23.308;2023-03-14T04:49:19;16.42;;;8.10;;
49392;SDS011;35268;42.642;23.308;2023-03-14T04:51:44;24.45;;;10.40;;
49392;SDS011;35268;42.642;23.308;2023-03-14T04:54:10;24.48;;;10.55;;
49392;SDS011;35268;42.642;23.308;2023-03-14T04:56:36;40.90;;;13.23;;
49392;SDS011;35268;42.642;23.308;2023-03-14T04:59:02;47.65;;;15.52;;
49392;SDS011;35268;42.642;23.308;2023-03-14T05:01:28;50.38;;;16.20;;
49392;SDS011;35268;42.642;23.308;2023-03-14T05:03:53;37.17;;;14.57;;
49392;SDS011;35268;42.642;23.308;2023-03-14T05:06:19;39.90;;;13.13;;
49392;SDS011;35268;42.642;23.308;2023-03-14T05:08:44;35.30;;;12.25;;
49392;SDS011;35268;42.642;23.308;2023-03-14T05:11:10;30.45;;;12.02;;
49392;SDS011;35268;42.642;23.308;2023-03-14T05:13:37;32.95;;;12.95;;
49392;SDS011;35268;42.642;23.308;2023-03-14T05:16:03;30.27;;;13.20;;
49392;SDS011;35268;42.642;23.308;2023-03-14T05:18:32;51.90;;;15.77;;
49392;SDS011;35268;42.642;23.308;2023-03-14T05:20:58;64.78;;;18.90;;
49392;SDS011;35268;42.642;23.308;2023-03-14T05:23:24;81.82;;;21.58;;
49392;SDS011;35268;42.642;23.308;2023-03-14T05:25:49;57.75;;;17.20;;
49392;SDS011;35268;42.642;23.308;2023-03-14T05:28:14;41.42;;;16.17;;
49392;SDS011;35268;42.642;23.308;2023-03-14T05:30:40;60.95;;;18.45;;
49392;SDS011;35268;42.642;23.308;2023-03-14T05:33:05;58.55;;;19.42;;
49392;SDS011;35268;42.642;23.308;2023-03-14T05:35:31;57.65;;;17.83;;
49392;SDS011;35268;42.642;23.308;2023-03-14T05:37:56;50.90;;;14.82;;
49392;SDS011;35268;42.642;23.308;2023-03-14T05:40:22;44.50;;;16.52;;
49392;SDS011;35268;42.642;23.308;2023-03-14T05:42:47;46.88;;;15.95;;
49392;SDS011;35268;42.642;23.308;2023-03-14T05:45:13;44.30;;;14.75;;
49392;SDS011;35268;42.642;23.308;2023-03-14T05:47:38;40.13;;;13.35;;
49392;SDS011;35268;42.642;23.308;2023-03-14T05:50:04;44.38;;;11.75;;
49392;SDS011;35268;42.642;23.308;2023-03-14T05:52:30;41.38;;;12.02;;
49392;SDS011;35268;42.642;23.308;2023-03-14T05:54:55;31.60;;;12.35;;
49392;SDS011;35268;42.642;23.308;2023-03-14T05:57:20;24.10;;;11.68;;
49392;SDS011;35268;42.642;23.308;2023-03-14T05:59:46;27.75;;;11.82;;
49392;SDS011;35268;42.642;23.308;2023-03-14T06:02:11;31.75;;;12.13;;
49392;SDS011;35268;42.642;23.308;2023-03-14T06:04:36;25.92;;;11.75;;
49392;SDS011;35268;42.642;23.308;2023-03-14T06:07:02;43.95;;;13.15;;
49392;SDS011;35268;42.642;23.308;2023-03-14T06:09:27;28.42;;;13.38;;
49392;SDS011;35268;42.642;23.308;2023-03-14T06:11:53;26.40;;;12.15;;
49392;SDS011;35268;42.642;23.308;2023-03-14T06:14:18;31.08;;;11.20;;
49392;SDS011;35268;42.642;23.308;2023-03-14T06:16:44;25.83;;;12.48;;
49392;SDS011;35268;42.642;23.308;2023-03-14T06:19:09;37.00;;;11.48;;
49392;SDS011;35268;42.642;23.308;2023-03-14T06:21:35;31.55;;;11.98;;
49392;SDS011;35268;42.642;23.308;2023-03-14T06:24:00;34.25;;;13.40;;
49392;SDS011;35268;42.642;23.308;2023-03-14T06:26:26;38.90;;;12.15;;
49392;SDS011;35268;42.642;23.308;2023-03-14T06:28:51;28.67;;;11.70;;
49392;SDS011;35268;42.642;23.308;2023-03-14T06:31:18;30.83;;;12.65;;
49392;SDS011;35268;42.642;23.308;2023-03-14T06:33:43;27.25;;;12.38;;
49392;SDS011;35268;42.642;23.308;2023-03-14T06:36:09;45.47;;;14.10;;
49392;SDS011;35268;42.642;23.308;2023-03-14T06:38:34;36.90;;;14.02;;
49392;SDS011;35268;42.642;23.308;2023-03-14T06:41:06;30.10;;;11.65;;
49392;SDS011;35268;42.642;23.308;2023-03-14T06:43:32;21.20;;;11.32;;
49392;SDS011;35268;42.642;23.308;2023-03-14T06:45:58;20.98;;;10.10;;
49392;SDS011;35268;42.642;23.308;2023-03-14T06:48:23;23.10;;;10.23;;
49392;SDS011;35268;42.642;23.308;2023-03-14T06:50:49;26.48;;;10.18;;
49392;SDS011;35268;42.642;23.308;2023-03-14T06:53:14;26.67;;;10.73;;
49392;SDS011;35268;42.642;23.308;2023-03-14T06:55:40;31.60;;;10.27;;
49392;SDS011;35268;42.642;23.308;2023-03-14T06:58:05;30.67;;;11.45;;
49392;SDS011;35268;42.642;23.308;2023-03-14T07:00:33;23.67;;;10.88;;
49392;SDS011;35268;42.642;23.308;2023-03-14T07:02:59;22.58;;;10.80;;
49392;SDS011;35268;42.642;23.308;2023-03-14T07:05:24;24.15;;;11.48;;
49392;SDS011;35268;42.642;23.308;2023-03-14T07:07:50;25.67;;;10.10;;
49392;SDS011;35268;42.642;23.308;2023-03-14T07:10:15;26.60;;;9.95;;
49392;SDS011;35268;42.642;23.308;2023-03-14T07:12:41;18.75;;;9.77;;
49392;SDS011;35268;42.642;23.308;2023-03-14T07:15:06;19.52;;;10.07;;
49392;SDS011;35268;42.642;23.308;2023-03-14T07:17:33;17.42;;;9.55;;
49392;SDS011;35268;42.642;23.308;2023-03-14T07:19:58;34.90;;;10.00;;
49392;SDS011;35268;42.642;23.308;2023-03-14T07:22:24;23.88;;;10.73;;
49392;SDS011;35268;42.642;23.308;2023-03-14T07:24:50;15.88;;;8.27;;
49392;SDS011;35268;42.642;23.308;2023-03-14T07:27:15;18.63;;;7.45;;
49392;SDS011;35268;42.642;23.308;2023-03-14T07:29:41;32.40;;;7.68;;
49392;SDS011;35268;42.642;23.308;2023-03-14T07:32:06;15.25;;;7.25;;
49392;SDS011;35268;42.642;23.308;2023-03-14T07:34:33;15.93;;;6.38;;
49392;SDS011;35268;42.642;23.308;2023-03-14T07:36:59;22.63;;;6.35;;
49392;SDS011;35268;42.642;23.308;2023-03-14T07:39:24;15.68;;;6.13;;
49392;SDS011;35268;42.642;23.308;2023-03-14T07:41:50;14.00;;;6.28;;
49392;SDS011;35268;42.642;23.308;2023-03-14T07:44:15;13.18;;;6.55;;
49392;SDS011;35268;42.642;23.308;2023-03-14T07:46:41;13.07;;;7.05;;
49392;SDS011;35268;42.642;23.308;2023-03-14T07:49:06;10.85;;;5.97;;
49392;SDS011;35268;42.642;23.308;2023-03-14T07:51:32;15.73;;;6.68;;
49392;SDS011;35268;42.642;23.308;2023-03-14T07:53:57;12.10;;;6.22;;
49392;SDS011;35268;42.642;23.308;2023-03-14T07:56:23;13.60;;;5.60;;
49392;SDS011;35268;42.642;23.308;2023-03-14T07:58:48;15.27;;;5.80;;
49392;SDS011;35268;42.642;23.308;2023-03-14T08:01:13;15.68;;;6.25;;
49392;SDS011;35268;42.642;23.308;2023-03-14T08:03:39;15.65;;;6.68;;
49392;SDS011;35268;42.642;23.308;2023-03-14T08:06:04;20.38;;;7.03;;
49392;SDS011;35268;42.642;23.308;2023-03-14T08:08:30;16.55;;;6.07;;
49392;SDS011;35268;42.642;23.308;2023-03-14T08:10:55;12.63;;;6.43;;
49392;SDS011;35268;42.642;23.308;2023-03-14T08:13:21;19.77;;;6.95;;
49392;SDS011;35268;42.642;23.308;2023-03-14T08:15:48;14.55;;;6.65;;
49392;SDS011;35268;42.642;23.308;2023-03-14T08:18:14;14.57;;;6.85;;
49392;SDS011;35268;42.642;23.308;2023-03-14T08:20:40;19.00;;;6.88;;
49392;SDS011;35268;42.642;23.308;2023-03-14T08:23:05;16.88;;;6.55;;
49392;SDS011;35268;42.642;23.308;2023-03-14T08:25:31;16.92;;;7.35;;
49392;SDS011;35268;42.642;23.308;2023-03-14T08:27:57;14.35;;;6.88;;
49392;SDS011;35268;42.642;23.308;2023-03-14T08:30:22;27.85;;;6.85;;
49392;SDS011;35268;42.642;23.308;2023-03-14T08:32:48;19.90;;;6.65;;
49392;SDS011;35268;42.642;23.308;2023-03-14T08:35:14;16.15;;;7.13;;
49392;SDS011;35268;42.642;23.308;2023-03-14T08:37:40;16.10;;;6.70;;
49392;SDS011;35268;42.642;23.308;2023-03-14T08:40:06;18.38;;;6.55;;
49392;SDS011;35268;42.642;23.308;2023-03-14T08:42:35;14.13;;;6.78;;
49392;SDS011;35268;42.642;23.308;2023-03-14T08:45:04;12.82;;;5.85;;
49392;SDS011;35268;42.642;23.308;2023-03-14T08:47:30;21.42;;;7.07;;
49392;SDS011;35268;42.642;23.308;2023-03-14T08:49:55;18.90;;;6.38;;
49392;SDS011;35268;42.642;23.308;2023-03-14T08:52:21;17.33;;;6.35;;
49392;SDS011;35268;42.642;23.308;2023-03-14T08:54:47;23.70;;;6.32;;
49392;SDS011;35268;42.642;23.308;2023-03-14T08:57:12;14.35;;;6.25;;
49392;SDS011;35268;42.642;23.308;2023-03-14T08:59:38;13.48;;;6.95;;
49392;SDS011;35268;42.642;23.308;2023-03-14T09:02:03;15.02;;;6.38;;
49392;SDS011;35268;42.642;23.308;2023-03-14T09:04:30;13.98;;;6.70;;
49392;SDS011;35268;42.642;23.308;2023-03-14T09:06:56;17.65;;;6.47;;
49392;SDS011;35268;42.642;23.308;2023-03-14T09:09:23;11.82;;;5.15;;
49392;SDS011;35268;42.642;23.308;2023-03-14T09:11:49;17.13;;;5.78;;
49392;SDS011;35268;42.642;23.308;2023-03-14T09:14:14;19.33;;;5.70;;
49392;SDS011;35268;42.642;23.308;2023-03-14T09:16:40;11.10;;;6.10;;
49392;SDS011;35268;42.642;23.308;2023-03-14T09:19:05;10.32;;;5.20;;
49392;SDS011;35268;42.642;23.308;2023-03-14T09:21:31;17.23;;;6.35;;
49392;SDS011;35268;42.642;23.308;2023-03-14T09:23:56;23.08;;;7.53;;
49392;SDS011;35268;42.642;23.308;2023-03-14T09:26:22;18.67;;;7.10;;
49392;SDS011;35268;42.642;23.308;2023-03-14T09:28:47;21.60;;;7.70;;
49392;SDS011;35268;42.642;23.308;2023-03-14T09:31:13;20.27;;;6.72;;
49392;SDS011;35268;42.642;23.308;2023-03-14T09:33:39;18.70;;;6.20;;
49392;SDS011;35268;42.642;23.308;2023-03-14T09:36:05;18.17;;;6.10;;
49392;SDS011;35268;42.642;23.308;2023-03-14T09:38:31;17.60;;;6.03;;
49392;SDS011;35268;42.642;23.308;2023-03-14T09:40:58;15.68;;;5.78;;
49392;SDS011;35268;42.642;23.308;2023-03-14T09:43:25;12.10;;;5.93;;
49392;SDS011;35268;42.642;23.308;2023-03-14T09:45:54;21.05;;;7.05;;
49392;SDS011;35268;42.642;23.308;2023-03-14T09:48:24;18.85;;;6.53;;
49392;SDS011;35268;42.642;23.308;2023-03-14T09:50:53;16.27;;;6.65;;
49392;SDS011;35268;42.642;23.308;2023-03-14T09:53:22;14.63;;;7.22;;
49392;SDS011;35268;42.642;23.308;2023-03-14T09:55:50;12.35;;;6.25;;
49392;SDS011;35268;42.642;23.308;2023-03-14T09:58:21;14.82;;;6.22;;
49392;SDS011;35268;42.642;23.308;2023-03-14T10:00:49;12.43;;;6.65;;
49392;SDS011;35268;42.642;23.308;2023-03-14T10:03:22;21.05;;;6.88;;
49392;SDS011;35268;42.642;23.308;2023-03-14T10:05:50;27.45;;;7.20;;
49392;SDS011;35268;42.642;23.308;2023-03-14T10:08:16;14.18;;;7.32;;
49392;SDS011;35268;42.642;23.308;2023-03-14T10:10:41;13.13;;;6.90;;
49392;SDS011;35268;42.642;23.308;2023-03-14T10:13:23;25.60;;;7.85;;
49392;SDS011;35268;42.642;23.308;2023-03-14T10:15:53;24.73;;;8.57;;
49392;SDS011;35268;42.642;23.308;2023-03-14T10:18:21;25.25;;;7.90;;
49392;SDS011;35268;42.642;23.308;2023-03-14T10:20:49;23.17;;;8.05;;
49392;SDS011;35268;42.642;23.308;2023-03-14T10:23:27;18.55;;;8.25;;
49392;SDS011;35268;42.642;23.308;2023-03-14T10:26:00;20.45;;;7.82;;
49392;SDS011;35268;42.642;23.308;2023-03-14T10:28:31;29.25;;;7.63;;
49392;SDS011;35268;42.642;23.308;2023-03-14T10:31:13;22.15;;;7.32;;
49392;SDS011;35268;42.642;23.308;2023-03-14T10:33:39;11.45;;;6.03;;
49392;SDS011;35268;42.642;23.308;2023-03-14T10:38:41;17.15;;;7.75;;
49392;SDS011;35268;42.642;23.308;2023-03-14T10:41:17;16.70;;;7.18;;
49392;SDS011;35268;42.642;23.308;2023-03-14T10:43:56;15.97;;;6.87;;
49392;SDS011;35268;42.642;23.308;2023-03-14T10:46:24;16.60;;;6.43;;
49392;SDS011;35268;42.642;23.308;2023-03-14T10:48:53;17.67;;;6.40;;
49392;SDS011;35268;42.642;23.308;2023-03-14T10:51:22;19.30;;;6.82;;
49392;SDS011;35268;42.642;23.308;2023-03-14T10:53:57;10.97;;;6.13;;
49392;SDS011;35268;42.642;23.308;2023-03-14T10:56:25;13.60;;;5.65;;
49392;SDS011;35268;42.642;23.308;2023-03-14T10:58:53;11.80;;;5.50;;
49392;SDS011;35268;42.642;23.308;2023-03-14T11:08:07;21.67;;;5.63;;
49392;SDS011;35268;42.642;23.308;2023-03-14T11:10:40;12.80;;;4.85;;
49392;SDS011;35268;42.642;23.308;2023-03-14T11:18:48;11.85;;;4.40;;
49392;SDS011;35268;42.642;23.308;2023-03-14T11:30:13;10.88;;;4.78;;
49392;SDS011;35268;42.642;23.308;2023-03-14T11:35:39;11.20;;;4.93;;
49392;SDS011;35268;42.642;23.308;2023-03-14T11:41:41;10.75;;;4.25;;
49392;SDS011;35268;42.642;23.308;2023-03-14T11:44:16;17.58;;;3.75;;
49392;SDS011;35268;42.642;23.308;2023-03-14T11:46:57;6.60;;;3.70;;
49392;SDS011;35268;42.642;23.308;2023-03-14T11:49:42;9.50;;;3.55;;
49392;SDS011;35268;42.642;23.308;2023-03-14T11:52:16;11.85;;;3.58;;
49392;SDS011;35268;42.642;23.308;2023-03-14T11:57:20;6.32;;;2.65;;
49392;SDS011;35268;42.642;23.308;2023-03-14T12:02:37;13.40;;;3.40;;
49392;SDS011;35268;42.642;23.308;2023-03-14T12:10:46;8.85;;;2.42;;
49392;SDS011;35268;42.642;23.308;2023-03-14T12:13:13;6.05;;;2.92;;
49392;SDS011;35268;42.642;23.308;2023-03-14T12:15:46;14.20;;;3.08;;
49392;SDS011;35268;42.642;23.308;2023-03-14T12:18:37;11.07;;;3.10;;
49392;SDS011;35268;42.642;23.308;2023-03-14T12:21:05;9.38;;;2.50;;
49392;SDS011;35268;42.642;23.308;2023-03-14T12:23:47;7.28;;;2.60;;
49392;SDS011;35268;42.642;23.308;2023-03-14T12:26:25;10.88;;;2.80;;
49392;SDS011;35268;42.642;23.308;2023-03-14T12:31:43;6.05;;;2.55;;
49392;SDS011;35268;42.642;23.308;2023-03-14T12:36:48;7.40;;;2.55;;
49392;SDS011;35268;42.642;23.308;2023-03-14T12:39:37;9.95;;;2.95;;
49392;SDS011;35268;42.642;23.308;2023-03-14T12:45:13;7.13;;;2.13;;
49392;SDS011;35268;42.642;23.308;2023-03-14T12:50:12;12.65;;;2.80;;
49392;SDS011;35268;42.642;23.308;2023-03-14T12:55:21;8.77;;;2.38;;
49392;SDS011;35268;42.642;23.308;2023-03-14T13:00:51;8.93;;;2.75;;
49392;SDS011;35268;42.642;23.308;2023-03-14T13:03:21;13.03;;;2.57;;
49392;SDS011;35268;42.642;23.308;2023-03-14T13:05:59;4.70;;;2.07;;
49392;SDS011;35268;42.642;23.308;2023-03-14T13:08:39;4.60;;;2.20;;
49392;SDS011;35268;42.642;23.308;2023-03-14T13:11:10;16.20;;;2.47;;
49392;SDS011;35268;42.642;23.308;2023-03-14T13:13:47;4.88;;;2.35;;
49392;SDS011;35268;42.642;23.308;2023-03-14T13:16:18;4.57;;;1.95;;
49392;SDS011;35268;42.642;23.308;2023-03-14T13:18:46;11.48;;;2.40;;
49392;SDS011;35268;42.642;23.308;2023-03-14T13:21:26;6.15;;;2.25;;
49392;SDS011;35268;42.642;23.308;2023-03-14T13:24:00;5.32;;;2.17;;
49392;SDS011;35268;42.642;23.308;2023-03-14T13:26:31;7.35;;;2.42;;
49392;SDS011;35268;42.642;23.308;2023-03-14T13:29:00;9.55;;;1.83;;
49392;SDS011;35268;42.642;23.308;2023-03-14T13:31:33;12.65;;;2.10;;
49392;SDS011;35268;42.642;23.308;2023-03-14T13:34:00;14.70;;;2.35;;
49392;SDS011;35268;42.642;23.308;2023-03-14T13:36:27;6.30;;;2.33;;
49392;SDS011;35268;42.642;23.308;2023-03-14T13:38:57;6.55;;;1.73;;
49392;SDS011;35268;42.642;23.308;2023-03-14T13:41:24;3.53;;;1.83;;
49392;SDS011;35268;42.642;23.308;2023-03-14T13:43:50;8.57;;;2.25;;
49392;SDS011;35268;42.642;23.308;2023-03-14T13:46:16;4.90;;;2.05;;
49392;SDS011;35268;42.642;23.308;2023-03-14T13:48:50;5.72;;;1.98;;
49392;SDS011;35268;42.642;23.308;2023-03-14T13:51:18;16.35;;;2.17;;
49392;SDS011;35268;42.642;23.308;2023-03-14T13:53:53;7.03;;;1.65;;
49392;SDS011;35268;42.642;23.308;2023-03-14T13:56:20;6.07;;;1.73;;
49392;SDS011;35268;42.642;23.308;2023-03-14T13:58:48;7.68;;;2.00;;
49392;SDS011;35268;42.642;23.308;2023-03-14T14:01:15;7.55;;;2.03;;
49392;SDS011;35268;42.642;23.308;2023-03-14T14:03:49;10.50;;;1.70;;
49392;SDS011;35268;42.642;23.308;2023-03-14T14:06:19;10.23;;;2.15;;
49392;SDS011;35268;42.642;23.308;2023-03-14T14:08:46;2.92;;;2.00;;
49392;SDS011;35268;42.642;23.308;2023-03-14T14:11:17;8.68;;;1.90;;
49392;SDS011;35268;42.642;23.308;2023-03-14T14:13:47;4.47;;;1.60;;
49392;SDS011;35268;42.642;23.308;2023-03-14T14:16:13;5.45;;;2.50;;
49392;SDS011;35268;42.642;23.308;2023-03-14T14:18:45;3.80;;;1.73;;
49392;SDS011;35268;42.642;23.308;2023-03-14T14:21:11;5.95;;;1.48;;
49392;SDS011;35268;42.642;23.308;2023-03-14T14:23:38;6.28;;;1.95;;
49392;SDS011;35268;42.642;23.308;2023-03-14T14:26:04;12.20;;;1.65;;
49392;SDS011;35268;42.642;23.308;2023-03-14T14:28:31;5.43;;;1.67;;
49392;SDS011;35268;42.642;23.308;2023-03-14T14:31:44;7.28;;;2.10;;
49392;SDS011;35268;42.642;23.308;2023-03-14T14:36:30;5.43;;;1.67;;
49392;SDS011;35268;42.642;23.308;2023-03-14T14:41:31;13.48;;;2.20;;
49392;SDS011;35268;42.642;23.308;2023-03-14T14:43:59;5.57;;;1.50;;
49392;SDS011;35268;42.642;23.308;2023-03-14T14:46:26;8.75;;;2.03;;
49392;SDS011;35268;42.642;23.308;2023-03-14T14:48:58;4.60;;;1.70;;
49392;SDS011;35268;42.642;23.308;2023-03-14T14:51:32;7.13;;;1.70;;
49392;SDS011;35268;42.642;23.308;2023-03-14T14:54:01;8.30;;;1.75;;
49392;SDS011;35268;42.642;23.308;2023-03-14T14:56:35;5.40;;;1.58;;
49392;SDS011;35268;42.642;23.308;2023-03-14T14:59:02;6.53;;;1.45;;
49392;SDS011;35268;42.642;23.308;2023-03-14T15:01:37;13.20;;;1.88;;
49392;SDS011;35268;42.642;23.308;2023-03-14T15:04:11;6.05;;;1.30;;
49392;SDS011;35268;42.642;23.308;2023-03-14T15:06:40;15.25;;;2.10;;
49392;SDS011;35268;42.642;23.308;2023-03-14T15:09:09;9.82;;;1.83;;
49392;SDS011;35268;42.642;23.308;2023-03-14T15:11:36;10.05;;;2.58;;
49392;SDS011;35268;42.642;23.308;2023-03-14T15:14:02;7.05;;;2.13;;
49392;SDS011;35268;42.642;23.308;2023-03-14T15:16:29;4.07;;;2.10;;
49392;SDS011;35268;42.642;23.308;2023-03-14T15:18:57;13.02;;;2.13;;
49392;SDS011;35268;42.642;23.308;2023-03-14T15:21:24;13.02;;;2.00;;
49392;SDS011;35268;42.642;23.308;2023-03-14T15:23:51;4.50;;;1.98;;
49392;SDS011;35268;42.642;23.308;2023-03-14T15:26:20;14.20;;;2.55;;
49392;SDS011;35268;42.642;23.308;2023-03-14T15:28:47;11.57;;;1.98;;
49392;SDS011;35268;42.642;23.308;2023-03-14T15:31:13;4.15;;;1.65;;
49392;SDS011;35268;42.642;23.308;2023-03-14T15:33:40;6.95;;;1.90;;
49392;SDS011;35268;42.642;23.308;2023-03-14T15:36:10;9.43;;;2.03;;